sensor_id;sensor_type;location;lat;lon;timestamp;temperature;humidity
75985;DHT22;65033;44.660;37.758;2023-07-13T00:01:01;25.17;70.64
75985;DHT22;65033;44.660;37.758;2023-07-13T00:02:06;25.22;70.12
75985;DHT22;65033;44.660;37.758;2023-07-13T00:03:10;25.32;69.30
75985;DHT22;65033;44.660;37.758;2023-07-13T00:04:16;25.40;69.07
75985;DHT22;65033;44.660;37.758;2023-07-13T00:05:21;25.47;68.92
75985;DHT22;65033;44.660;37.758;2023-07-13T00:06:24;25.51;69.90
75985;DHT22;65033;44.660;37.758;2023-07-13T00:07:28;25.52;69.49
75985;DHT22;65033;44.660;37.758;2023-07-13T00:08:31;25.49;69.04
75985;DHT22;65033;44.660;37.758;2023-07-13T00:09:36;25.51;69.74
75985;DHT22;65033;44.660;37.758;2023-07-13T00:10:40;25.48;69.72
75985;DHT22;65033;44.660;37.758;2023-07-13T00:11:44;25.49;68.87
75985;DHT22;65033;44.660;37.758;2023-07-13T00:12:48;25.52;69.07
75985;DHT22;65033;44.660;37.758;2023-07-13T00:13:54;25.57;68.99
75985;DHT22;65033;44.660;37.758;2023-07-13T00:14:58;25.57;69.20
75985;DHT22;65033;44.660;37.758;2023-07-13T00:16:03;25.61;68.75
75985;DHT22;65033;44.660;37.758;2023-07-13T00:17:08;25.61;69.77
75985;DHT22;65033;44.660;37.758;2023-07-13T00:18:12;25.51;70.32
75985;DHT22;65033;44.660;37.758;2023-07-13T00:19:16;25.43;70.73
75985;DHT22;65033;44.660;37.758;2023-07-13T00:20:22;25.36;70.45
75985;DHT22;65033;44.660;37.758;2023-07-13T00:21:25;25.37;69.56
75985;DHT22;65033;44.660;37.758;2023-07-13T00:22:29;25.43;70.05
75985;DHT22;65033;44.660;37.758;2023-07-13T00:23:32;25.44;69.90
75985;DHT22;65033;44.660;37.758;2023-07-13T00:24:36;25.47;69.97
75985;DHT22;65033;44.660;37.758;2023-07-13T00:25:44;25.47;69.29
75985;DHT22;65033;44.660;37.758;2023-07-13T00:26:48;25.47;69.55
75985;DHT22;65033;44.660;37.758;2023-07-13T00:27:51;25.48;69.58
75985;DHT22;65033;44.660;37.758;2023-07-13T00:28:54;25.54;69.16
75985;DHT22;65033;44.660;37.758;2023-07-13T00:29:58;25.58;68.92
75985;DHT22;65033;44.660;37.758;2023-07-13T00:31:01;25.57;69.03
75985;DHT22;65033;44.660;37.758;2023-07-13T00:32:05;25.61;68.81
75985;DHT22;65033;44.660;37.758;2023-07-13T00:33:10;25.58;69.71
75985;DHT22;65033;44.660;37.758;2023-07-13T00:34:19;25.53;69.20
75985;DHT22;65033;44.660;37.758;2023-07-13T00:35:25;25.59;69.12
75985;DHT22;65033;44.660;37.758;2023-07-13T00:36:29;25.58;69.87
75985;DHT22;65033;44.660;37.758;2023-07-13T00:37:33;25.51;70.18
75985;DHT22;65033;44.660;37.758;2023-07-13T00:38:38;25.45;71.07
75985;DHT22;65033;44.660;37.758;2023-07-13T00:39:42;25.40;70.84
75985;DHT22;65033;44.660;37.758;2023-07-13T00:40:46;25.30;71.49
75985;DHT22;65033;44.660;37.758;2023-07-13T00:41:50;25.22;72.04
75985;DHT22;65033;44.660;37.758;2023-07-13T00:42:57;25.17;72.10
75985;DHT22;65033;44.660;37.758;2023-07-13T00:44:01;25.18;71.48
75985;DHT22;65033;44.660;37.758;2023-07-13T00:46:51;25.17;72.18
75985;DHT22;65033;44.660;37.758;2023-07-13T00:47:55;25.15;71.77
75985;DHT22;65033;44.660;37.758;2023-07-13T00:49:02;25.21;71.75
75985;DHT22;65033;44.660;37.758;2023-07-13T00:50:08;25.18;71.16
75985;DHT22;65033;44.660;37.758;2023-07-13T00:51:14;25.22;71.22
75985;DHT22;65033;44.660;37.758;2023-07-13T00:52:19;25.32;70.92
75985;DHT22;65033;44.660;37.758;2023-07-13T00:53:24;25.36;70.23
75985;DHT22;65033;44.660;37.758;2023-07-13T00:54:32;25.43;70.50
75985;DHT22;65033;44.660;37.758;2023-07-13T00:55:36;25.46;70.26
75985;DHT22;65033;44.660;37.758;2023-07-13T00:56:41;25.46;69.58
75985;DHT22;65033;44.660;37.758;2023-07-13T00:57:46;25.52;69.26
75985;DHT22;65033;44.660;37.758;2023-07-13T00:58:49;25.53;69.32
75985;DHT22;65033;44.660;37.758;2023-07-13T00:59:59;25.50;69.45
75985;DHT22;65033;44.660;37.758;2023-07-13T01:01:06;25.58;69.10
75985;DHT22;65033;44.660;37.758;2023-07-13T01:02:10;25.61;68.81
75985;DHT22;65033;44.660;37.758;2023-07-13T01:03:15;25.66;68.51
75985;DHT22;65033;44.660;37.758;2023-07-13T01:04:20;25.65;68.75
75985;DHT22;65033;44.660;37.758;2023-07-13T01:05:24;25.67;68.44
75985;DHT22;65033;44.660;37.758;2023-07-13T01:06:29;25.74;68.47
75985;DHT22;65033;44.660;37.758;2023-07-13T01:07:34;25.74;68.40
75985;DHT22;65033;44.660;37.758;2023-07-13T01:08:38;25.74;68.54
75985;DHT22;65033;44.660;37.758;2023-07-13T01:09:42;25.72;68.50
75985;DHT22;65033;44.660;37.758;2023-07-13T01:10:57;25.74;68.61
75985;DHT22;65033;44.660;37.758;2023-07-13T01:12:01;25.69;68.92
75985;DHT22;65033;44.660;37.758;2023-07-13T01:13:06;25.65;68.87
75985;DHT22;65033;44.660;37.758;2023-07-13T01:14:09;25.66;68.49
75985;DHT22;65033;44.660;37.758;2023-07-13T01:15:34;25.65;68.64
75985;DHT22;65033;44.660;37.758;2023-07-13T01:16:39;25.65;68.52
75985;DHT22;65033;44.660;37.758;2023-07-13T01:17:43;25.64;68.46
75985;DHT22;65033;44.660;37.758;2023-07-13T01:18:47;25.61;68.58
75985;DHT22;65033;44.660;37.758;2023-07-13T01:19:52;25.61;68.53
75985;DHT22;65033;44.660;37.758;2023-07-13T01:21:02;25.58;69.55
75985;DHT22;65033;44.660;37.758;2023-07-13T01:22:09;25.58;69.36
75985;DHT22;65033;44.660;37.758;2023-07-13T01:23:14;25.59;68.62
75985;DHT22;65033;44.660;37.758;2023-07-13T01:24:18;25.63;68.44
75985;DHT22;65033;44.660;37.758;2023-07-13T01:25:22;25.68;68.06
75985;DHT22;65033;44.660;37.758;2023-07-13T01:26:28;25.79;67.81
75985;DHT22;65033;44.660;37.758;2023-07-13T01:27:31;25.81;67.55
75985;DHT22;65033;44.660;37.758;2023-07-13T01:28:36;25.81;68.07
75985;DHT22;65033;44.660;37.758;2023-07-13T01:29:44;25.79;67.85
75985;DHT22;65033;44.660;37.758;2023-07-13T01:30:49;25.78;68.05
75985;DHT22;65033;44.660;37.758;2023-07-13T01:31:52;25.80;68.12
75985;DHT22;65033;44.660;37.758;2023-07-13T01:32:56;25.84;67.43
75985;DHT22;65033;44.660;37.758;2023-07-13T01:34:01;25.92;67.41
75985;DHT22;65033;44.660;37.758;2023-07-13T01:35:05;25.94;67.09
75985;DHT22;65033;44.660;37.758;2023-07-13T01:36:10;26.01;66.85
75985;DHT22;65033;44.660;37.758;2023-07-13T01:37:14;26.07;66.50
75985;DHT22;65033;44.660;37.758;2023-07-13T01:38:20;26.09;66.48
75985;DHT22;65033;44.660;37.758;2023-07-13T01:39:24;26.13;66.52
75985;DHT22;65033;44.660;37.758;2023-07-13T01:40:27;26.17;66.37
75985;DHT22;65033;44.660;37.758;2023-07-13T01:41:31;26.12;66.27
75985;DHT22;65033;44.660;37.758;2023-07-13T01:42:34;26.18;66.30
75985;DHT22;65033;44.660;37.758;2023-07-13T01:43:42;26.19;66.12
75985;DHT22;65033;44.660;37.758;2023-07-13T01:44:46;26.22;66.74
75985;DHT22;65033;44.660;37.758;2023-07-13T01:45:49;26.07;67.07
75985;DHT22;65033;44.660;37.758;2023-07-13T01:46:52;26.04;67.48
75985;DHT22;65033;44.660;37.758;2023-07-13T01:47:56;26.01;67.68
75985;DHT22;65033;44.660;37.758;2023-07-13T01:49:00;25.95;67.55
75985;DHT22;65033;44.660;37.758;2023-07-13T01:50:05;25.87;68.89
75985;DHT22;65033;44.660;37.758;2023-07-13T01:51:10;25.82;68.30
75985;DHT22;65033;44.660;37.758;2023-07-13T01:52:13;25.82;68.97
75985;DHT22;65033;44.660;37.758;2023-07-13T01:53:17;25.80;68.61
75985;DHT22;65033;44.660;37.758;2023-07-13T01:54:20;25.76;68.97
75985;DHT22;65033;44.660;37.758;2023-07-13T01:55:25;25.78;68.81
75985;DHT22;65033;44.660;37.758;2023-07-13T01:56:29;25.75;68.13
75985;DHT22;65033;44.660;37.758;2023-07-13T01:57:32;25.77;67.72
75985;DHT22;65033;44.660;37.758;2023-07-13T01:58:36;25.76;68.12
75985;DHT22;65033;44.660;37.758;2023-07-13T01:59:39;25.74;68.01
75985;DHT22;65033;44.660;37.758;2023-07-13T02:00:43;25.71;68.07
75985;DHT22;65033;44.660;37.758;2023-07-13T02:01:48;25.69;67.88
75985;DHT22;65033;44.660;37.758;2023-07-13T02:02:51;25.67;68.08
75985;DHT22;65033;44.660;37.758;2023-07-13T02:03:54;25.57;68.51
75985;DHT22;65033;44.660;37.758;2023-07-13T02:04:58;25.60;68.20
75985;DHT22;65033;44.660;37.758;2023-07-13T02:06:01;25.60;68.20
75985;DHT22;65033;44.660;37.758;2023-07-13T02:07:08;25.58;68.30
75985;DHT22;65033;44.660;37.758;2023-07-13T02:08:11;25.52;68.56
75985;DHT22;65033;44.660;37.758;2023-07-13T02:09:14;25.47;68.85
75985;DHT22;65033;44.660;37.758;2023-07-13T02:10:18;25.45;69.07
75985;DHT22;65033;44.660;37.758;2023-07-13T02:11:21;25.38;69.20
75985;DHT22;65033;44.660;37.758;2023-07-13T02:12:25;25.38;69.42
75985;DHT22;65033;44.660;37.758;2023-07-13T02:13:28;25.37;69.90
75985;DHT22;65033;44.660;37.758;2023-07-13T02:14:31;25.36;69.53
75985;DHT22;65033;44.660;37.758;2023-07-13T02:15:34;25.38;69.33
75985;DHT22;65033;44.660;37.758;2023-07-13T02:16:41;25.44;69.29
75985;DHT22;65033;44.660;37.758;2023-07-13T02:17:44;25.48;69.15
75985;DHT22;65033;44.660;37.758;2023-07-13T02:18:48;25.44;69.52
75985;DHT22;65033;44.660;37.758;2023-07-13T02:19:53;25.49;68.78
75985;DHT22;65033;44.660;37.758;2023-07-13T02:20:57;25.53;68.68
75985;DHT22;65033;44.660;37.758;2023-07-13T02:22:00;25.49;68.71
75985;DHT22;65033;44.660;37.758;2023-07-13T02:23:05;25.52;68.80
75985;DHT22;65033;44.660;37.758;2023-07-13T02:24:10;25.44;68.94
75985;DHT22;65033;44.660;37.758;2023-07-13T02:25:20;25.46;68.75
75985;DHT22;65033;44.660;37.758;2023-07-13T02:26:24;25.43;68.91
75985;DHT22;65033;44.660;37.758;2023-07-13T02:27:31;25.39;69.15
75985;DHT22;65033;44.660;37.758;2023-07-13T02:28:34;25.37;69.10
75985;DHT22;65033;44.660;37.758;2023-07-13T02:29:38;25.42;68.97
75985;DHT22;65033;44.660;37.758;2023-07-13T02:30:41;25.45;69.07
75985;DHT22;65033;44.660;37.758;2023-07-13T02:31:44;25.43;69.04
75985;DHT22;65033;44.660;37.758;2023-07-13T02:32:47;25.37;68.94
75985;DHT22;65033;44.660;37.758;2023-07-13T02:33:52;25.33;68.85
75985;DHT22;65033;44.660;37.758;2023-07-13T02:34:56;25.36;68.91
75985;DHT22;65033;44.660;37.758;2023-07-13T02:35:59;25.39;68.59
75985;DHT22;65033;44.660;37.758;2023-07-13T02:37:02;25.35;68.63
75985;DHT22;65033;44.660;37.758;2023-07-13T02:38:07;25.34;68.79
75985;DHT22;65033;44.660;37.758;2023-07-13T02:39:12;25.31;68.93
75985;DHT22;65033;44.660;37.758;2023-07-13T02:40:15;25.30;69.06
75985;DHT22;65033;44.660;37.758;2023-07-13T02:41:18;25.32;69.01
75985;DHT22;65033;44.660;37.758;2023-07-13T02:42:22;25.33;69.11
75985;DHT22;65033;44.660;37.758;2023-07-13T02:43:25;25.39;68.87
75985;DHT22;65033;44.660;37.758;2023-07-13T02:44:28;25.40;68.73
75985;DHT22;65033;44.660;37.758;2023-07-13T02:45:32;25.42;68.72
75985;DHT22;65033;44.660;37.758;2023-07-13T02:46:37;25.35;68.93
75985;DHT22;65033;44.660;37.758;2023-07-13T02:47:41;25.36;68.91
75985;DHT22;65033;44.660;37.758;2023-07-13T02:48:46;25.33;68.97
75985;DHT22;65033;44.660;37.758;2023-07-13T02:49:49;25.29;69.13
75985;DHT22;65033;44.660;37.758;2023-07-13T02:50:53;25.33;68.97
75985;DHT22;65033;44.660;37.758;2023-07-13T02:51:58;25.39;68.89
75985;DHT22;65033;44.660;37.758;2023-07-13T02:53:01;25.39;69.07
75985;DHT22;65033;44.660;37.758;2023-07-13T02:54:06;25.36;69.04
75985;DHT22;65033;44.660;37.758;2023-07-13T02:55:11;25.38;69.43
75985;DHT22;65033;44.660;37.758;2023-07-13T02:56:15;25.32;69.80
75985;DHT22;65033;44.660;37.758;2023-07-13T02:57:19;25.34;69.67
75985;DHT22;65033;44.660;37.758;2023-07-13T02:58:22;25.27;70.07
75985;DHT22;65033;44.660;37.758;2023-07-13T02:59:25;25.28;69.85
75985;DHT22;65033;44.660;37.758;2023-07-13T03:00:29;25.29;69.83
75985;DHT22;65033;44.660;37.758;2023-07-13T03:01:34;25.29;69.65
75985;DHT22;65033;44.660;37.758;2023-07-13T03:02:38;25.39;68.93
75985;DHT22;65033;44.660;37.758;2023-07-13T03:03:42;25.40;69.39
75985;DHT22;65033;44.660;37.758;2023-07-13T03:04:45;25.38;69.22
75985;DHT22;65033;44.660;37.758;2023-07-13T03:06:00;25.38;69.43
75985;DHT22;65033;44.660;37.758;2023-07-13T03:07:12;25.30;69.71
75985;DHT22;65033;44.660;37.758;2023-07-13T03:08:17;25.30;69.54
75985;DHT22;65033;44.660;37.758;2023-07-13T03:09:27;25.21;69.78
75985;DHT22;65033;44.660;37.758;2023-07-13T03:10:31;25.20;69.73
75985;DHT22;65033;44.660;37.758;2023-07-13T03:11:37;25.27;69.63
75985;DHT22;65033;44.660;37.758;2023-07-13T03:12:52;25.21;69.85
75985;DHT22;65033;44.660;37.758;2023-07-13T03:14:01;25.14;70.15
75985;DHT22;65033;44.660;37.758;2023-07-13T03:15:09;25.10;70.31
75985;DHT22;65033;44.660;37.758;2023-07-13T03:16:15;25.07;70.53
75985;DHT22;65033;44.660;37.758;2023-07-13T03:17:22;25.06;70.51
75985;DHT22;65033;44.660;37.758;2023-07-13T03:18:27;25.06;70.54
75985;DHT22;65033;44.660;37.758;2023-07-13T03:19:32;25.07;70.38
75985;DHT22;65033;44.660;37.758;2023-07-13T03:20:37;25.03;70.31
75985;DHT22;65033;44.660;37.758;2023-07-13T03:21:40;25.01;70.55
75985;DHT22;65033;44.660;37.758;2023-07-13T03:22:44;25.05;70.44
75985;DHT22;65033;44.660;37.758;2023-07-13T03:23:48;25.08;70.32
75985;DHT22;65033;44.660;37.758;2023-07-13T03:24:54;25.22;69.81
75985;DHT22;65033;44.660;37.758;2023-07-13T03:26:02;25.38;69.06
75985;DHT22;65033;44.660;37.758;2023-07-13T03:27:08;25.46;68.84
75985;DHT22;65033;44.660;37.758;2023-07-13T03:28:15;25.52;68.71
75985;DHT22;65033;44.660;37.758;2023-07-13T03:29:19;25.54;68.52
75985;DHT22;65033;44.660;37.758;2023-07-13T03:30:22;25.58;68.57
75985;DHT22;65033;44.660;37.758;2023-07-13T03:31:28;25.59;68.30
75985;DHT22;65033;44.660;37.758;2023-07-13T03:32:35;25.65;68.17
75985;DHT22;65033;44.660;37.758;2023-07-13T03:33:38;25.75;67.54
75985;DHT22;65033;44.660;37.758;2023-07-13T03:34:42;25.78;67.54
75985;DHT22;65033;44.660;37.758;2023-07-13T03:35:45;25.80;67.26
75985;DHT22;65033;44.660;37.758;2023-07-13T03:36:48;25.83;67.14
75985;DHT22;65033;44.660;37.758;2023-07-13T03:37:52;25.84;66.56
75985;DHT22;65033;44.660;37.758;2023-07-13T03:38:57;25.88;67.01
75985;DHT22;65033;44.660;37.758;2023-07-13T03:40:10;25.88;66.27
75985;DHT22;65033;44.660;37.758;2023-07-13T03:41:13;25.90;66.75
75985;DHT22;65033;44.660;37.758;2023-07-13T03:42:17;25.90;66.62
75985;DHT22;65033;44.660;37.758;2023-07-13T03:43:20;25.90;66.90
75985;DHT22;65033;44.660;37.758;2023-07-13T03:44:23;25.88;66.80
75985;DHT22;65033;44.660;37.758;2023-07-13T03:45:31;25.91;65.59
75985;DHT22;65033;44.660;37.758;2023-07-13T03:46:34;25.97;64.94
75985;DHT22;65033;44.660;37.758;2023-07-13T03:47:38;26.08;62.68
75985;DHT22;65033;44.660;37.758;2023-07-13T03:48:41;26.12;65.36
75985;DHT22;65033;44.660;37.758;2023-07-13T03:49:47;26.10;65.69
75985;DHT22;65033;44.660;37.758;2023-07-13T03:50:50;26.10;66.14
75985;DHT22;65033;44.660;37.758;2023-07-13T03:51:53;26.09;66.17
75985;DHT22;65033;44.660;37.758;2023-07-13T03:52:57;26.11;65.95
75985;DHT22;65033;44.660;37.758;2023-07-13T03:54:01;26.10;65.97
75985;DHT22;65033;44.660;37.758;2023-07-13T03:55:06;26.06;66.03
75985;DHT22;65033;44.660;37.758;2023-07-13T03:56:11;26.02;66.21
75985;DHT22;65033;44.660;37.758;2023-07-13T03:57:16;25.98;66.36
75985;DHT22;65033;44.660;37.758;2023-07-13T03:58:29;25.96;66.29
75985;DHT22;65033;44.660;37.758;2023-07-13T03:59:39;25.95;66.49
75985;DHT22;65033;44.660;37.758;2023-07-13T04:00:44;25.94;66.56
75985;DHT22;65033;44.660;37.758;2023-07-13T04:01:48;25.94;66.30
75985;DHT22;65033;44.660;37.758;2023-07-13T04:02:52;25.94;66.17
75985;DHT22;65033;44.660;37.758;2023-07-13T04:03:55;25.93;65.95
75985;DHT22;65033;44.660;37.758;2023-07-13T04:04:59;25.94;65.69
75985;DHT22;65033;44.660;37.758;2023-07-13T04:06:04;25.93;65.50
75985;DHT22;65033;44.660;37.758;2023-07-13T04:07:08;25.95;65.21
75985;DHT22;65033;44.660;37.758;2023-07-13T04:08:14;25.94;65.14
75985;DHT22;65033;44.660;37.758;2023-07-13T04:09:18;25.92;64.99
75985;DHT22;65033;44.660;37.758;2023-07-13T04:10:21;25.92;65.16
75985;DHT22;65033;44.660;37.758;2023-07-13T04:11:27;25.90;65.36
75985;DHT22;65033;44.660;37.758;2023-07-13T04:12:31;25.91;58.81
75985;DHT22;65033;44.660;37.758;2023-07-13T04:13:34;25.96;56.10
75985;DHT22;65033;44.660;37.758;2023-07-13T04:14:37;26.03;56.00
75985;DHT22;65033;44.660;37.758;2023-07-13T04:15:41;26.15;62.21
75985;DHT22;65033;44.660;37.758;2023-07-13T04:16:44;26.15;63.54
75985;DHT22;65033;44.660;37.758;2023-07-13T04:17:48;26.15;63.85
75985;DHT22;65033;44.660;37.758;2023-07-13T04:18:51;26.18;64.11
75985;DHT22;65033;44.660;37.758;2023-07-13T04:19:59;26.19;64.13
75985;DHT22;65033;44.660;37.758;2023-07-13T04:21:02;26.22;64.24
75985;DHT22;65033;44.660;37.758;2023-07-13T04:22:05;26.19;64.37
75985;DHT22;65033;44.660;37.758;2023-07-13T04:23:09;26.19;64.54
75985;DHT22;65033;44.660;37.758;2023-07-13T04:24:12;26.22;64.63
75985;DHT22;65033;44.660;37.758;2023-07-13T04:25:15;26.23;64.74
75985;DHT22;65033;44.660;37.758;2023-07-13T04:26:19;26.22;64.69
75985;DHT22;65033;44.660;37.758;2023-07-13T04:27:25;26.21;64.69
75985;DHT22;65033;44.660;37.758;2023-07-13T04:28:28;26.22;65.05
75985;DHT22;65033;44.660;37.758;2023-07-13T04:29:31;26.25;64.95
75985;DHT22;65033;44.660;37.758;2023-07-13T04:30:36;26.26;64.96
75985;DHT22;65033;44.660;37.758;2023-07-13T04:31:40;26.31;64.67
75985;DHT22;65033;44.660;37.758;2023-07-13T04:32:43;26.35;64.58
75985;DHT22;65033;44.660;37.758;2023-07-13T04:33:47;26.36;64.07
75985;DHT22;65033;44.660;37.758;2023-07-13T04:34:50;26.39;63.87
75985;DHT22;65033;44.660;37.758;2023-07-13T04:35:56;26.38;63.37
75985;DHT22;65033;44.660;37.758;2023-07-13T04:37:00;26.38;62.74
75985;DHT22;65033;44.660;37.758;2023-07-13T04:38:03;26.40;61.78
75985;DHT22;65033;44.660;37.758;2023-07-13T04:39:07;26.45;62.86
75985;DHT22;65033;44.660;37.758;2023-07-13T04:40:11;26.50;63.28
75985;DHT22;65033;44.660;37.758;2023-07-13T04:41:15;26.52;63.50
75985;DHT22;65033;44.660;37.758;2023-07-13T04:42:18;26.54;63.26
75985;DHT22;65033;44.660;37.758;2023-07-13T04:43:23;26.61;63.10
75985;DHT22;65033;44.660;37.758;2023-07-13T04:44:26;26.67;62.53
75985;DHT22;65033;44.660;37.758;2023-07-13T04:45:30;26.70;62.95
75985;DHT22;65033;44.660;37.758;2023-07-13T04:46:34;26.78;62.63
75985;DHT22;65033;44.660;37.758;2023-07-13T04:47:39;26.86;62.59
75985;DHT22;65033;44.660;37.758;2023-07-13T04:48:42;26.91;62.28
75985;DHT22;65033;44.660;37.758;2023-07-13T04:49:45;26.91;61.75
75985;DHT22;65033;44.660;37.758;2023-07-13T04:50:54;26.95;61.61
75985;DHT22;65033;44.660;37.758;2023-07-13T04:51:57;26.99;61.78
75985;DHT22;65033;44.660;37.758;2023-07-13T04:53:00;27.05;61.13
75985;DHT22;65033;44.660;37.758;2023-07-13T04:54:04;27.05;61.13
75985;DHT22;65033;44.660;37.758;2023-07-13T04:55:10;27.09;61.57
75985;DHT22;65033;44.660;37.758;2023-07-13T04:56:13;27.08;61.58
75985;DHT22;65033;44.660;37.758;2023-07-13T04:57:16;27.11;61.60
75985;DHT22;65033;44.660;37.758;2023-07-13T04:58:23;27.15;60.54
75985;DHT22;65033;44.660;37.758;2023-07-13T04:59:26;27.10;61.50
75985;DHT22;65033;44.660;37.758;2023-07-13T05:00:31;27.08;61.84
75985;DHT22;65033;44.660;37.758;2023-07-13T05:01:36;27.13;62.05
75985;DHT22;65033;44.660;37.758;2023-07-13T05:02:39;27.14;61.21
75985;DHT22;65033;44.660;37.758;2023-07-13T05:03:43;27.16;60.81
75985;DHT22;65033;44.660;37.758;2023-07-13T05:04:47;27.23;60.63
75985;DHT22;65033;44.660;37.758;2023-07-13T05:05:57;27.28;60.67
75985;DHT22;65033;44.660;37.758;2023-07-13T05:07:01;27.35;61.18
75985;DHT22;65033;44.660;37.758;2023-07-13T05:08:04;27.41;60.92
75985;DHT22;65033;44.660;37.758;2023-07-13T05:09:07;27.40;60.66
75985;DHT22;65033;44.660;37.758;2023-07-13T05:10:11;27.41;60.20
75985;DHT22;65033;44.660;37.758;2023-07-13T05:11:14;27.45;60.08
75985;DHT22;65033;44.660;37.758;2023-07-13T05:12:17;27.50;60.24
75985;DHT22;65033;44.660;37.758;2023-07-13T05:13:21;27.55;60.26
75985;DHT22;65033;44.660;37.758;2023-07-13T05:14:25;27.59;60.02
75985;DHT22;65033;44.660;37.758;2023-07-13T05:15:28;27.66;60.15
75985;DHT22;65033;44.660;37.758;2023-07-13T05:16:31;27.72;60.09
75985;DHT22;65033;44.660;37.758;2023-07-13T05:17:35;27.73;59.41
75985;DHT22;65033;44.660;37.758;2023-07-13T05:18:38;27.72;59.34
75985;DHT22;65033;44.660;37.758;2023-07-13T05:19:43;27.74;58.87
75985;DHT22;65033;44.660;37.758;2023-07-13T05:20:46;27.78;58.24
75985;DHT22;65033;44.660;37.758;2023-07-13T05:21:49;27.75;58.58
75985;DHT22;65033;44.660;37.758;2023-07-13T05:22:53;27.74;58.28
75985;DHT22;65033;44.660;37.758;2023-07-13T05:23:56;27.76;58.20
75985;DHT22;65033;44.660;37.758;2023-07-13T05:25:00;27.73;58.48
75985;DHT22;65033;44.660;37.758;2023-07-13T05:26:04;27.69;58.63
75985;DHT22;65033;44.660;37.758;2023-07-13T05:27:09;27.69;58.40
75985;DHT22;65033;44.660;37.758;2023-07-13T05:28:13;27.70;58.04
75985;DHT22;65033;44.660;37.758;2023-07-13T05:29:16;27.72;57.87
75985;DHT22;65033;44.660;37.758;2023-07-13T05:30:22;27.73;58.06
75985;DHT22;65033;44.660;37.758;2023-07-13T05:31:26;27.78;57.97
75985;DHT22;65033;44.660;37.758;2023-07-13T05:32:29;27.80;57.89
75985;DHT22;65033;44.660;37.758;2023-07-13T05:33:34;27.83;58.08
75985;DHT22;65033;44.660;37.758;2023-07-13T05:34:37;27.87;47.42
75985;DHT22;65033;44.660;37.758;2023-07-13T05:35:40;27.93;56.63
75985;DHT22;65033;44.660;37.758;2023-07-13T05:36:44;27.85;57.79
75985;DHT22;65033;44.660;37.758;2023-07-13T05:37:47;27.78;58.22
75985;DHT22;65033;44.660;37.758;2023-07-13T05:38:50;27.74;58.99
75985;DHT22;65033;44.660;37.758;2023-07-13T05:39:53;27.79;58.98
75985;DHT22;65033;44.660;37.758;2023-07-13T05:40:57;27.86;58.68
75985;DHT22;65033;44.660;37.758;2023-07-13T05:42:02;27.95;58.49
75985;DHT22;65033;44.660;37.758;2023-07-13T05:43:05;28.06;58.28
75985;DHT22;65033;44.660;37.758;2023-07-13T05:44:09;28.06;57.50
75985;DHT22;65033;44.660;37.758;2023-07-13T05:45:15;28.12;57.47
75985;DHT22;65033;44.660;37.758;2023-07-13T05:46:20;28.21;57.00
75985;DHT22;65033;44.660;37.758;2023-07-13T05:47:23;28.26;57.13
75985;DHT22;65033;44.660;37.758;2023-07-13T05:48:26;28.32;56.82
75985;DHT22;65033;44.660;37.758;2023-07-13T05:49:30;28.32;57.13
75985;DHT22;65033;44.660;37.758;2023-07-13T05:50:33;28.31;57.03
75985;DHT22;65033;44.660;37.758;2023-07-13T05:51:37;28.23;57.00
75985;DHT22;65033;44.660;37.758;2023-07-13T05:52:40;28.17;56.68
75985;DHT22;65033;44.660;37.758;2023-07-13T05:53:43;28.18;57.05
75985;DHT22;65033;44.660;37.758;2023-07-13T05:54:46;28.16;57.09
75985;DHT22;65033;44.660;37.758;2023-07-13T05:55:50;28.18;57.53
75985;DHT22;65033;44.660;37.758;2023-07-13T05:56:55;28.29;56.86
75985;DHT22;65033;44.660;37.758;2023-07-13T05:58:00;28.39;56.68
75985;DHT22;65033;44.660;37.758;2023-07-13T05:59:03;28.47;56.43
75985;DHT22;65033;44.660;37.758;2023-07-13T06:00:08;28.59;56.19
75985;DHT22;65033;44.660;37.758;2023-07-13T06:01:16;28.58;56.64
75985;DHT22;65033;44.660;37.758;2023-07-13T06:02:21;28.59;56.19
75985;DHT22;65033;44.660;37.758;2023-07-13T06:03:25;28.55;56.93
75985;DHT22;65033;44.660;37.758;2023-07-13T06:04:28;28.53;56.23
75985;DHT22;65033;44.660;37.758;2023-07-13T06:05:31;28.49;56.43
75985;DHT22;65033;44.660;37.758;2023-07-13T06:06:37;28.44;56.22
75985;DHT22;65033;44.660;37.758;2023-07-13T06:07:41;28.43;56.50
75985;DHT22;65033;44.660;37.758;2023-07-13T06:08:44;28.47;56.74
75985;DHT22;65033;44.660;37.758;2023-07-13T06:09:47;28.54;57.16
75985;DHT22;65033;44.660;37.758;2023-07-13T06:10:51;28.60;56.33
75985;DHT22;65033;44.660;37.758;2023-07-13T06:11:57;28.57;55.66
75985;DHT22;65033;44.660;37.758;2023-07-13T06:13:00;28.52;55.58
75985;DHT22;65033;44.660;37.758;2023-07-13T06:14:03;28.54;55.74
75985;DHT22;65033;44.660;37.758;2023-07-13T06:15:07;28.59;56.31
75985;DHT22;65033;44.660;37.758;2023-07-13T06:16:11;28.62;55.75
75985;DHT22;65033;44.660;37.758;2023-07-13T06:17:15;28.55;56.15
75985;DHT22;65033;44.660;37.758;2023-07-13T06:18:20;28.59;56.06
75985;DHT22;65033;44.660;37.758;2023-07-13T06:19:23;28.67;56.04
75985;DHT22;65033;44.660;37.758;2023-07-13T06:20:26;28.76;55.81
75985;DHT22;65033;44.660;37.758;2023-07-13T06:21:29;28.78;55.71
75985;DHT22;65033;44.660;37.758;2023-07-13T06:22:33;28.84;55.75
75985;DHT22;65033;44.660;37.758;2023-07-13T06:23:36;28.82;55.73
75985;DHT22;65033;44.660;37.758;2023-07-13T06:24:40;28.90;55.62
75985;DHT22;65033;44.660;37.758;2023-07-13T06:25:43;28.88;55.07
75985;DHT22;65033;44.660;37.758;2023-07-13T06:26:46;28.98;49.88
75985;DHT22;65033;44.660;37.758;2023-07-13T06:27:50;29.04;53.60
75985;DHT22;65033;44.660;37.758;2023-07-13T06:28:53;29.07;54.33
75985;DHT22;65033;44.660;37.758;2023-07-13T06:29:57;29.06;54.64
75985;DHT22;65033;44.660;37.758;2023-07-13T06:31:00;29.06;54.47
75985;DHT22;65033;44.660;37.758;2023-07-13T06:32:05;29.14;54.90
75985;DHT22;65033;44.660;37.758;2023-07-13T06:33:08;29.13;54.54
75985;DHT22;65033;44.660;37.758;2023-07-13T06:34:13;29.08;54.36
75985;DHT22;65033;44.660;37.758;2023-07-13T06:35:16;29.04;54.76
75985;DHT22;65033;44.660;37.758;2023-07-13T06:36:19;29.02;54.82
75985;DHT22;65033;44.660;37.758;2023-07-13T06:37:23;29.01;54.73
75985;DHT22;65033;44.660;37.758;2023-07-13T06:38:26;28.90;55.04
75985;DHT22;65033;44.660;37.758;2023-07-13T06:39:30;28.87;55.02
75985;DHT22;65033;44.660;37.758;2023-07-13T06:40:33;28.83;55.45
75985;DHT22;65033;44.660;37.758;2023-07-13T06:41:36;28.86;55.01
75985;DHT22;65033;44.660;37.758;2023-07-13T06:42:45;28.79;54.77